Time;durP1;ratioP1;P1;durP2;ratioP2;P2;SDS_P1;SDS_P2;PMS_P1;PMS_P2;Temp;Humidity;BMP_temperature;BMP_pressure;BME280_temperature;BME280_humidity;BME280_pressure;Samples;Min_cycle;Max_cycle;Signal;HPM_P1;HPM_P2
2021/07/04 00:00:26;;;;;;;11.60;9.95;;;;;;;21.27;70.90;101304.03;5033721;28;20047;-90
2021/07/04 00:02:53;;;;;;;11.13;9.98;;;;;;;21.34;70.93;101305.66;5051832;28;20109;-89
2021/07/04 00:05:21;;;;;;;10.75;9.75;;;;;;;21.36;70.80;101309.97;5032225;28;20037;-91
2021/07/04 00:07:47;;;;;;;10.05;9.05;;;;;;;21.35;71.10;101305.59;5039275;28;20277;-92
2021/07/04 00:10:21;;;;;;;11.18;10.07;;;;;;;21.37;70.21;101308.22;5029673;28;20037;-89
2021/07/04 00:12:46;;;;;;;10.18;9.18;;;;;;;21.34;71.10;101298.66;5054831;28;20033;-90
2021/07/04 00:15:14;;;;;;;10.63;9.55;;;;;;;21.35;70.67;101297.75;5016779;28;20025;-90
2021/07/04 00:17:40;;;;;;;10.60;9.50;;;;;;;21.38;70.93;101299.44;5033818;28;20033;-91
2021/07/04 00:20:12;;;;;;;9.77;8.88;;;;;;;21.35;70.59;101294.28;5006590;28;20100;-90
2021/07/04 00:22:38;;;;;;;10.75;9.63;;;;;;;21.37;70.19;101297.75;5036687;28;20033;-88
2021/07/04 00:25:06;;;;;;;10.50;9.52;;;;;;;21.36;71.02;101296.00;5021037;28;20100;-90
2021/07/04 00:27:32;;;;;;;10.77;9.68;;;;;;;21.33;69.50;101293.44;5036873;28;20021;-90
2021/07/04 00:29:57;;;;;;;9.82;8.93;;;;;;;21.35;71.02;101286.44;5018838;28;20044;-91
2021/07/04 00:32:22;;;;;;;9.85;8.93;;;;;;;21.36;70.85;101286.41;5035912;28;20040;-90
2021/07/04 00:34:48;;;;;;;10.85;9.75;;;;;;;21.38;70.53;101291.59;5052804;28;20029;-90
2021/07/04 00:37:13;;;;;;;10.73;9.73;;;;;;;21.35;70.79;101281.19;5019738;28;20156;-89
2021/07/04 00:39:38;;;;;;;10.88;9.77;;;;;;;21.34;69.59;101282.94;5002834;28;20037;-90
2021/07/04 00:42:04;;;;;;;10.55;9.45;;;;;;;21.36;70.34;101281.16;5018978;28;20052;-90
2021/07/04 00:44:29;;;;;;;10.65;9.68;;;;;;;21.36;70.86;101275.94;5020050;28;20045;-91
2021/07/04 00:46:55;;;;;;;10.95;9.85;;;;;;;21.39;70.50;101272.38;5019350;28;20080;-89
2021/07/04 00:49:20;;;;;;;10.70;9.70;;;;;;;21.36;70.57;101278.56;5035794;28;20113;-91
2021/07/04 00:51:46;;;;;;;10.85;9.68;;;;;;;21.37;69.95;101277.66;5005968;28;20040;-91
2021/07/04 00:54:12;;;;;;;12.52;9.48;;;;;;;21.36;70.06;101275.03;5014192;28;20025;-90
2021/07/04 00:56:38;;;;;;;10.43;9.40;;;;;;;21.38;70.33;101270.66;5017562;28;20033;-90
2021/07/04 00:59:03;;;;;;;10.63;9.25;;;;;;;21.38;70.54;101270.66;5017576;28;20048;-90
2021/07/04 01:01:29;;;;;;;10.50;9.40;;;;;;;21.40;70.65;101268.88;5016278;28;20025;-90
2021/07/04 01:03:55;;;;;;;11.85;9.80;;;;;;;21.39;70.18;101274.16;5017154;28;20114;-90
2021/07/04 01:06:20;;;;;;;11.02;9.85;;;;;;;21.36;70.74;101267.19;5032683;28;20418;-90
2021/07/04 01:08:46;;;;;;;9.98;8.98;;;;;;;21.39;70.07;101266.31;5015746;28;20377;-90
2021/07/04 01:11:11;;;;;;;10.02;8.95;;;;;;;21.40;70.20;101255.78;5013386;28;20030;-91
2021/07/04 01:13:37;;;;;;;10.70;9.30;;;;;;;21.40;70.49;101258.41;5037617;28;20025;-91
2021/07/04 01:16:03;;;;;;;10.65;9.38;;;;;;;21.37;70.87;101254.09;5019671;28;20029;-90
2021/07/04 01:18:29;;;;;;;11.07;9.48;;;;;;;21.39;70.78;101256.69;5028249;28;20030;-91
2021/07/04 01:20:58;;;;;;;11.10;9.90;;;;;;;21.38;70.71;101252.31;5032585;28;20031;-91
2021/07/04 01:23:24;;;;;;;10.93;9.82;;;;;;;21.36;70.67;101246.25;5005514;28;20025;-91
2021/07/04 01:25:53;;;;;;;11.60;9.73;;;;;;;21.37;70.49;101246.22;5039512;28;20025;-92
2021/07/04 01:28:19;;;;;;;10.07;9.15;;;;;;;21.39;70.51;101246.22;5021067;28;20022;-91
2021/07/04 01:30:49;;;;;;;10.50;9.50;;;;;;;21.39;70.08;101240.13;5018789;28;20533;-92
2021/07/04 01:33:15;;;;;;;10.55;9.45;;;;;;;21.40;70.36;101245.31;5020347;28;20073;-92
2021/07/04 01:35:40;;;;;;;10.20;9.20;;;;;;;21.42;70.03;101234.84;5002973;28;20029;-91
2021/07/04 01:38:06;;;;;;;9.73;8.75;;;;;;;21.41;69.37;101239.22;4986324;28;20506;-92
2021/07/04 01:40:31;;;;;;;10.45;9.35;;;;;;;21.41;70.43;101239.22;5001791;28;20479;-90
2021/07/04 01:42:58;;;;;;;9.75;8.50;;;;;;;21.42;70.44;101234.84;5018077;28;20029;-91
2021/07/04 01:45:23;;;;;;;10.23;9.23;;;;;;;21.42;70.30;101240.09;5018073;28;20363;-91
2021/07/04 01:47:51;;;;;;;10.45;9.45;;;;;;;21.42;70.03;101238.31;5001570;28;20185;-91
2021/07/04 01:50:23;;;;;;;9.52;8.63;;;;;;;21.39;70.40;101227.88;5018206;28;20108;-91
2021/07/04 01:52:49;;;;;;;9.75;8.75;;;;;;;21.43;70.03;101228.72;5018009;28;20026;-92
2021/07/04 01:55:16;;;;;;;9.13;8.23;;;;;;;21.42;69.80;101227.00;5017794;28;20025;-91
2021/07/04 01:57:42;;;;;;;9.98;8.98;;;;;;;21.39;69.84;101227.88;4985458;28;20034;-91
2021/07/04 02:00:15;;;;;;;10.90;9.05;;;;;;;21.40;69.96;101226.97;5001258;28;20494;-91
2021/07/04 02:02:43;;;;;;;9.73;8.77;;;;;;;21.41;69.80;101220.91;5017696;28;20021;-91
2021/07/04 02:05:08;;;;;;;9.48;8.55;;;;;;;21.39;70.19;101219.19;5001473;28;20120;-91
2021/07/04 02:07:34;;;;;;;10.00;9.00;;;;;;;21.42;69.84;101227.00;5017297;28;20132;-92
2021/07/04 02:09:59;;;;;;;12.02;9.45;;;;;;;21.42;69.76;101227.00;5001433;28;20029;-89
2021/07/04 02:12:25;;;;;;;11.15;10.05;;;;;;;21.42;70.17;101227.84;5017702;28;20026;-91
2021/07/04 02:14:50;;;;;;;9.73;8.77;;;;;;;21.44;68.77;101231.28;5017571;28;20104;-91
2021/07/04 02:17:16;;;;;;;10.35;9.35;;;;;;;21.43;69.81;101229.59;4984843;28;20095;-91
2021/07/04 02:19:42;;;;;;;10.57;9.38;;;;;;;21.45;69.94;101232.16;5035168;28;20371;-92
2021/07/04 02:22:09;;;;;;;9.70;8.68;;;;;;;21.44;70.02;101233.91;5017375;28;20032;-92
2021/07/04 02:24:35;;;;;;;10.55;9.05;;;;;;;21.43;69.66;101229.59;5017188;28;20032;-91
2021/07/04 02:27:01;;;;;;;10.88;8.68;;;;;;;21.42;69.84;101227.84;5033591;28;20450;-92
2021/07/04 02:29:27;;;;;;;10.35;9.27;;;;;;;21.43;69.81;101223.50;5017496;28;20108;-92
2021/07/04 02:31:52;;;;;;;10.63;9.63;;;;;;;21.42;69.30;101230.47;5000944;28;20430;-92
2021/07/04 02:34:18;;;;;;;10.63;9.18;;;;;;;21.43;69.24;101226.97;5000854;28;20479;-92
2021/07/04 02:36:44;;;;;;;10.30;9.30;;;;;;;21.43;69.18;101224.34;5033654;28;20479;-90
2021/07/04 02:39:10;;;;;;;10.68;9.57;;;;;;;21.44;69.58;101220.81;5017092;28;20037;-91
2021/07/04 02:41:36;;;;;;;11.65;9.98;;;;;;;21.44;69.57;101228.69;5000302;28;20056;-92
2021/07/04 02:44:01;;;;;;;11.50;9.82;;;;;;;21.44;69.81;101233.06;4984302;28;20053;-91
2021/07/04 02:46:27;;;;;;;10.82;9.73;;;;;;;21.43;69.86;101226.13;5016666;28;20083;-91
2021/07/04 02:48:53;;;;;;;10.23;9.23;;;;;;;21.42;67.99;101221.75;5000435;28;20025;-92
2021/07/04 02:51:18;;;;;;;12.43;9.57;;;;;;;21.41;68.34;101218.28;5016854;28;20025;-90
2021/07/04 02:53:44;;;;;;;10.55;9.25;;;;;;;21.44;68.80;101209.50;5016601;28;20026;-91
2021/07/04 02:56:09;;;;;;;10.50;9.40;;;;;;;21.41;69.61;101213.03;5000352;28;20034;-92
2021/07/04 02:58:35;;;;;;;10.63;9.27;;;;;;;21.44;69.03;101220.81;4983966;28;20151;-91
2021/07/04 03:01:01;;;;;;;9.73;8.75;;;;;;;21.43;69.32;101206.03;5000244;28;20044;-90
2021/07/04 03:03:26;;;;;;;10.52;9.35;;;;;;;21.43;69.46;101216.50;5000027;28;20494;-91
2021/07/04 03:05:52;;;;;;;10.38;9.30;;;;;;;21.45;69.21;101212.09;5000022;28;20509;-92
2021/07/04 03:08:17;;;;;;;10.02;9.02;;;;;;;21.45;68.84;101219.94;4983616;28;20099;-91
2021/07/04 03:10:43;;;;;;;9.50;8.60;;;;;;;21.46;69.14;101219.03;4984129;28;20055;-91
2021/07/04 03:13:08;;;;;;;9.68;8.70;;;;;;;21.46;68.70;101218.19;4999924;28;20029;-92
2021/07/04 03:15:34;;;;;;;9.73;8.73;;;;;;;21.45;69.13;101216.44;5016348;28;20026;-92
2021/07/04 03:17:59;;;;;;;9.80;8.88;;;;;;;21.46;69.12;101223.44;4999943;28;20038;-91
2021/07/04 03:20:25;;;;;;;9.73;8.60;;;;;;;21.45;68.86;101219.94;5016771;28;20507;-91
2021/07/04 03:22:51;;;;;;;10.43;9.30;;;;;;;21.44;68.80;101210.34;4992517;28;20032;-90
2021/07/04 03:25:16;;;;;;;9.80;8.82;;;;;;;21.43;69.25;101210.41;5025583;28;20026;-89
2021/07/04 03:27:43;;;;;;;9.50;8.57;;;;;;;21.43;69.14;101218.25;5008846;28;20021;-90
2021/07/04 03:30:12;;;;;;;9.75;8.77;;;;;;;21.43;68.48;101208.66;5004838;28;20467;-91
2021/07/04 03:32:39;;;;;;;9.82;8.48;;;;;;;21.41;68.46;101212.16;5032897;28;20057;-90
2021/07/04 03:35:07;;;;;;;9.48;8.48;;;;;;;21.43;68.32;101211.25;5000400;28;20491;-90
2021/07/04 03:37:33;;;;;;;9.40;8.43;;;;;;;21.42;68.63;101214.75;5016624;28;20044;-91
2021/07/04 03:39:58;;;;;;;8.95;8.15;;;;;;;21.39;67.94;101201.72;4999749;28;20025;-90
2021/07/04 03:42:24;;;;;;;9.60;8.63;;;;;;;21.37;67.87;101196.50;4983683;28;20043;-91
2021/07/04 03:44:49;;;;;;;8.40;7.60;;;;;;;21.43;68.27;101198.16;5016521;28;20052;-91
2021/07/04 03:47:15;;;;;;;8.25;7.50;;;;;;;21.42;68.08;101188.56;5016140;28;20100;-90
2021/07/04 03:49:40;;;;;;;9.02;8.13;;;;;;;21.42;68.17;101193.81;5000314;28;20026;-90
2021/07/04 03:52:06;;;;;;;8.52;7.72;;;;;;;21.43;68.02;101195.56;4983536;28;20026;-91
2021/07/04 03:54:31;;;;;;;8.25;7.55;;;;;;;21.42;67.41;101201.66;4986450;28;20053;-91
2021/07/04 03:56:57;;;;;;;9.02;8.00;;;;;;;21.41;67.61;101192.09;5003986;28;20044;-92
2021/07/04 03:59:22;;;;;;;9.38;8.07;;;;;;;21.43;67.58;101199.94;5003880;28;20103;-91
2021/07/04 04:01:47;;;;;;;8.10;7.30;;;;;;;21.42;67.22;101211.28;4987425;28;20128;-91
2021/07/04 04:04:13;;;;;;;9.18;8.27;;;;;;;21.41;67.73;101199.06;5003665;28;20029;-91
2021/07/04 04:06:38;;;;;;;8.27;7.50;;;;;;;21.42;67.48;101201.66;5003860;28;20063;-91
2021/07/04 04:09:03;;;;;;;8.25;7.45;;;;;;;21.40;67.54;101206.03;5003472;28;20077;-91
2021/07/04 04:11:29;;;;;;;7.95;7.25;;;;;;;21.42;67.35;101203.44;5003667;28;20475;-91
2021/07/04 04:13:54;;;;;;;7.88;7.07;;;;;;;21.43;67.25;101206.03;4988628;28;20447;-91
2021/07/04 04:16:20;;;;;;;8.63;7.82;;;;;;;21.42;67.62;101208.66;4987082;28;20022;-92
2021/07/04 04:18:45;;;;;;;9.52;8.05;;;;;;;21.40;67.16;101211.28;5003303;28;20387;-90
2021/07/04 04:21:11;;;;;;;8.07;7.28;;;;;;;21.44;67.19;101217.34;5003468;28;20083;-91
2021/07/04 04:23:36;;;;;;;8.48;7.50;;;;;;;21.44;67.14;101214.75;5020112;28;20365;-91
2021/07/04 04:26:02;;;;;;;7.93;7.15;;;;;;;21.45;67.33;101214.72;4987606;28;20034;-91
2021/07/04 04:28:29;;;;;;;8.45;7.40;;;;;;;21.45;67.05;101201.63;5003073;28;20022;-90
2021/07/04 04:30:54;;;;;;;7.88;7.13;;;;;;;21.45;67.48;101204.25;5019484;28;20036;-91
2021/07/04 04:33:20;;;;;;;8.07;7.28;;;;;;;21.45;66.92;101201.63;5003507;28;20467;-92
2021/07/04 04:35:46;;;;;;;7.88;7.18;;;;;;;21.44;67.14;101199.03;5003666;28;20026;-92
2021/07/04 04:38:11;;;;;;;7.80;7.00;;;;;;;21.48;67.37;101198.94;4986841;28;20438;-91
2021/07/04 04:40:36;;;;;;;8.27;7.53;;;;;;;21.47;67.22;101196.34;5003436;28;20600;-91
2021/07/04 04:43:02;;;;;;;7.88;7.07;;;;;;;21.46;67.50;101199.84;4987053;28;20033;-92
2021/07/04 04:45:28;;;;;;;8.07;7.00;;;;;;;;;;5019570;28;20025;-92
2021/07/04 04:47:53;;;;;;;8.30;7.32;;;;;;;21.47;67.37;101198.94;5037192;28;20021;-90
2021/07/04 04:50:19;;;;;;;8.45;7.32;;;;;;;21.51;67.19;101203.22;4986386;28;20038;-91
2021/07/04 04:52:44;;;;;;;7.72;6.93;;;;;;;21.51;67.50;101203.22;5002875;28;20140;-91
2021/07/04 04:55:10;;;;;;;7.82;7.03;;;;;;;21.55;67.26;101204.91;4986434;28;20448;-91
2021/07/04 04:57:37;;;;;;;7.95;7.15;;;;;;;21.53;67.80;101210.16;5002685;28;20035;-91
2021/07/04 05:00:09;;;;;;;7.80;6.88;;;;;;;21.54;67.71;101214.53;5002784;28;20037;-91
2021/07/04 05:02:35;;;;;;;7.82;6.82;;;;;;;21.58;67.35;101210.09;5018913;28;20482;-90
2021/07/04 05:05:00;;;;;;;10.98;7.43;;;;;;;21.63;66.18;101213.47;5019354;28;20111;-91
2021/07/04 05:07:25;;;;;;;7.80;6.97;;;;;;;21.67;66.87;101203.81;4983151;28;20046;-90
2021/07/04 05:09:51;;;;;;;8.07;7.28;;;;;;;21.70;67.07;101201.09;5015874;28;20030;-91
2021/07/04 05:12:16;;;;;;;7.35;6.65;;;;;;;21.71;67.33;101201.09;4999112;28;20116;-90
2021/07/04 05:14:42;;;;;;;7.53;6.72;;;;;;;21.76;66.87;101206.22;4982796;28;20041;-91
2021/07/04 05:17:07;;;;;;;7.57;6.85;;;;;;;21.77;67.09;101203.59;4998689;28;20044;-91
2021/07/04 05:19:32;;;;;;;7.10;6.43;;;;;;;21.78;67.54;101200.06;4998808;28;20365;-91
2021/07/04 05:21:58;;;;;;;8.02;7.30;;;;;;;21.81;67.34;101201.75;4998910;28;20064;-90
2021/07/04 05:24:23;;;;;;;7.65;6.93;;;;;;;21.84;66.74;101199.06;4982434;28;20117;-90
2021/07/04 05:26:49;;;;;;;7.90;7.20;;;;;;;21.89;65.81;101191.09;4998561;28;20529;-89
2021/07/04 05:29:14;;;;;;;7.93;7.13;;;;;;;21.93;64.98;101195.38;4982359;28;20030;-91
2021/07/04 05:31:40;;;;;;;7.07;6.38;;;;;;;21.94;64.56;101194.47;4998649;28;20034;-91
2021/07/04 05:34:05;;;;;;;7.13;6.43;;;;;;;21.98;63.86;101197.00;4998848;28;20033;-90
2021/07/04 05:36:31;;;;;;;6.78;6.18;;;;;;;21.98;63.22;101198.75;5014960;28;20046;-88
2021/07/04 05:38:57;;;;;;;6.95;6.22;;;;;;;21.96;64.17;101197.94;4982789;28;20072;-90
2021/07/04 05:41:22;;;;;;;7.30;6.60;;;;;;;21.93;63.39;101191.00;4998826;28;20391;-88
2021/07/04 05:43:48;;;;;;;7.90;7.13;;;;;;;21.90;64.23;101191.06;4982845;28;20040;-87
2021/07/04 05:46:14;;;;;;;7.68;6.97;;;;;;;21.89;64.40;101191.09;4998715;28;20037;-88
2021/07/04 05:48:42;;;;;;;7.82;7.13;;;;;;;21.87;64.63;101196.38;5015031;28;20026;-87
2021/07/04 05:51:08;;;;;;;7.78;7.07;;;;;;;21.85;64.25;101189.44;4999340;28;20041;-85
2021/07/04 05:53:33;;;;;;;8.35;7.30;;;;;;;21.83;64.98;101181.63;5016142;28;20025;-87
2021/07/04 05:55:59;;;;;;;8.93;7.10;;;;;;;21.82;65.43;101177.28;4998696;28;20026;-86
2021/07/04 05:58:24;;;;;;;7.93;7.22;;;;;;;21.82;65.78;101177.28;4986058;28;20044;-86
2021/07/04 06:00:49;;;;;;;8.32;7.63;;;;;;;21.85;65.64;101177.19;5008844;28;20037;-84
2021/07/04 06:03:15;;;;;;;8.35;7.65;;;;;;;21.87;65.55;101182.41;5019931;28;20493;-83
2021/07/04 06:05:41;;;;;;;9.25;7.47;;;;;;;21.87;65.49;101175.41;5015514;28;20033;-84
2021/07/04 06:08:06;;;;;;;8.40;7.60;;;;;;;21.91;64.52;101176.22;5024302;28;20052;-84
2021/07/04 06:10:32;;;;;;;8.25;7.45;;;;;;;21.94;63.73;101179.59;5034947;28;20044;-85
2021/07/04 06:12:58;;;;;;;9.52;8.32;;;;;;;21.97;63.80;101170.81;5001395;28;20036;-85
2021/07/04 06:15:23;;;;;;;7.88;7.15;;;;;;;21.98;63.54;101170.78;4984751;28;20035;-86
2021/07/04 06:17:49;;;;;;;9.55;7.88;;;;;;;21.99;62.66;101171.66;5000423;28;20021;-85
2021/07/04 06:20:16;;;;;;;9.85;8.00;;;;;;;21.97;62.80;101170.81;4984567;28;20502;-85
2021/07/04 06:22:42;;;;;;;11.07;8.18;;;;;;;21.97;62.32;101163.84;5035311;28;20471;-86
2021/07/04 06:25:10;;;;;;;9.10;8.02;;;;;;;21.97;64.10;101163.84;5017314;28;20175;-87
2021/07/04 06:27:36;;;;;;;12.48;8.18;;;;;;;22.02;62.25;101166.34;5017384;28;20097;-87
2021/07/04 06:30:03;;;;;;;12.13;7.65;;;;;;;22.06;62.09;101159.25;5002891;28;20029;-89
2021/07/04 06:32:29;;;;;;;9.20;7.50;;;;;;;22.06;63.18;101160.16;5039321;28;20025;-92
2021/07/04 06:34:54;;;;;;;11.00;7.82;;;;;;;22.03;62.04;101154.97;5003619;28;20501;-88
2021/07/04 06:37:20;;;;;;;10.13;6.70;;;;;;;22.07;61.79;101158.38;5002796;28;20052;-89
2021/07/04 06:39:45;;;;;;;9.10;7.10;;;;;;;22.07;61.64;101156.63;5019084;28;20029;-88
2021/07/04 06:42:11;;;;;;;8.40;7.00;;;;;;;22.06;61.97;101162.75;5018203;28;20052;-88
2021/07/04 06:44:38;;;;;;;6.75;6.10;;;;;;;22.04;62.08;101164.56;5002420;28;20061;-89
2021/07/04 06:47:03;;;;;;;7.60;6.80;;;;;;;22.03;61.30;101161.97;5020058;28;20033;-90
2021/07/04 06:49:29;;;;;;;6.75;6.15;;;;;;;22.02;61.39;101157.63;4987581;28;20029;-92
2021/07/04 06:51:55;;;;;;;7.60;6.22;;;;;;;22.05;62.81;101152.31;5001626;28;20120;-88
2021/07/04 06:54:20;;;;;;;7.63;5.90;;;;;;;22.11;61.43;101150.41;5017673;28;20476;-89
2021/07/04 06:56:45;;;;;;;9.55;5.88;;;;;;;22.13;62.85;101143.38;5000877;28;20025;-90
2021/07/04 06:59:11;;;;;;;6.38;5.60;;;;;;;22.18;61.02;101145.88;4984979;28;20061;-86
2021/07/04 07:01:36;;;;;;;6.88;5.55;;;;;;;22.28;60.22;101144.78;5003148;28;20387;-89
2021/07/04 07:04:02;;;;;;;7.93;5.88;;;;;;;22.32;59.41;101148.19;4984343;28;20026;-89
2021/07/04 07:06:27;;;;;;;5.78;5.18;;;;;;;22.28;59.56;101146.56;5000358;28;20368;-89
2021/07/04 07:08:52;;;;;;;6.57;5.57;;;;;;;22.28;59.86;101149.19;5017381;28;20388;-90
2021/07/04 07:11:18;;;;;;;5.95;5.32;;;;;;;22.25;59.61;101152.72;4984456;28;20025;-89
2021/07/04 07:13:43;;;;;;;9.20;5.68;;;;;;;22.22;61.18;101147.56;4983797;28;20029;-89
2021/07/04 07:16:09;;;;;;;8.32;5.60;;;;;;;22.15;61.25;101159.94;5016369;28;20017;-89
2021/07/04 07:18:34;;;;;;;5.40;4.88;;;;;;;22.16;60.85;101158.16;5034009;28;20028;-89
2021/07/04 07:21:00;;;;;;;7.90;5.80;;;;;;;22.17;60.37;101158.13;4999810;28;20418;-89
2021/07/04 07:23:26;;;;;;;6.03;5.43;;;;;;;22.17;60.32;101152.88;4999857;28;20059;-87
2021/07/04 07:25:53;;;;;;;8.70;5.38;;;;;;;22.22;60.21;101155.44;5015932;28;20509;-89
2021/07/04 07:28:19;;;;;;;6.25;5.25;;;;;;;22.23;59.94;101144.03;4999268;28;20079;-89
2021/07/04 07:30:44;;;;;;;5.72;5.13;;;;;;;22.28;59.27;101143.94;4999927;28;20422;-91
2021/07/04 07:33:09;;;;;;;5.55;5.05;;;;;;;22.28;59.22;101143.94;5016499;28;20049;-89
2021/07/04 07:35:35;;;;;;;5.07;4.57;;;;;;;22.28;59.67;101144.78;4999911;28;20453;-90
2021/07/04 07:38:03;;;;;;;6.88;4.90;;;;;;;22.36;58.27;101147.22;4983550;28;20030;-90
2021/07/04 07:40:34;;;;;;;5.75;4.72;;;;;;;22.44;59.04;101149.66;4984142;28;20057;-87
2021/07/04 07:43:01;;;;;;;4.60;4.20;;;;;;;22.43;59.09;101148.81;4999665;28;20040;-87
2021/07/04 07:45:26;;;;;;;5.15;4.20;;;;;;;22.51;58.11;101146.84;4999564;28;20108;-87
2021/07/04 07:47:52;;;;;;;3.88;3.53;;;;;;;22.52;57.54;101148.56;4999962;28;20120;-88
2021/07/04 07:50:17;;;;;;;5.03;3.72;;;;;;;22.52;59.02;101147.72;5000770;28;20109;-87
2021/07/04 07:52:53;;;;;;;4.45;4.05;;;;;;;22.51;59.42;101149.44;5001959;28;20475;-89
2021/07/04 07:55:19;;;;;;;4.00;3.60;;;;;;;22.48;59.76;101141.69;4991732;28;20475;-89
2021/07/04 07:57:44;;;;;;;4.35;3.95;;;;;;;22.49;59.56;101145.16;5015746;28;20033;-86
2021/07/04 08:00:12;;;;;;;4.85;3.72;;;;;;;22.44;60.40;101147.03;4999458;28;20544;-91
2021/07/04 08:02:37;;;;;;;4.50;3.90;;;;;;;22.44;60.36;101147.91;4999540;28;20053;-89
2021/07/04 08:05:03;;;;;;;4.30;3.88;;;;;;;22.39;60.15;101142.78;4999502;28;20467;-90
2021/07/04 08:07:29;;;;;;;6.00;3.92;;;;;;;22.38;60.03;101143.69;4999090;28;20054;-90
2021/07/04 08:09:54;;;;;;;4.05;3.63;;;;;;;22.36;60.09;101142.84;5015653;28;20086;-90
2021/07/04 08:12:19;;;;;;;4.10;3.58;;;;;;;22.34;60.37;101139.41;4999394;28;20026;-90
2021/07/04 08:14:45;;;;;;;6.22;3.70;;;;;;;22.33;60.54;101132.44;4983511;28;20057;-90
2021/07/04 08:17:10;;;;;;;3.92;3.50;;;;;;;22.34;61.23;101134.16;4983039;28;20025;-90
2021/07/04 08:19:36;;;;;;;4.20;3.80;;;;;;;22.30;61.72;101136.91;5015302;28;20029;-88
2021/07/04 08:22:02;;;;;;;4.78;3.45;;;;;;;22.26;60.39;101135.25;4999993;28;20056;-88
2021/07/04 08:24:28;;;;;;;4.38;3.97;;;;;;;22.28;60.76;101136.94;4984633;28;20029;-89
2021/07/04 08:26:54;;;;;;;4.20;3.80;;;;;;;22.32;60.84;101133.34;5017678;28;20025;-90
2021/07/04 08:29:20;;;;;;;4.35;3.90;;;;;;;22.34;59.88;101134.16;4983887;28;20398;-90
2021/07/04 08:31:45;;;;;;;7.07;3.97;;;;;;;22.37;60.61;101125.34;5033206;28;20029;-88
2021/07/04 08:34:10;;;;;;;4.07;3.38;;;;;;;22.40;61.42;101127.88;5015367;28;20032;-88
2021/07/04 08:36:36;;;;;;;5.13;3.60;;;;;;;22.42;61.08;101128.72;5015353;28;20476;-90
2021/07/04 08:39:04;;;;;;;6.13;3.83;;;;;;;22.44;62.26;101116.44;4999509;28;20459;-91
2021/07/04 08:41:29;;;;;;;5.10;3.65;;;;;;;22.46;61.71;101113.78;5018869;28;20029;-91
2021/07/04 08:43:55;;;;;;;5.63;3.30;;;;;;;22.44;62.03;101113.81;5002633;28;20053;-89
2021/07/04 08:46:20;;;;;;;4.45;3.53;;;;;;;22.45;61.59;101112.91;5018869;28;20112;-89
2021/07/04 08:48:46;;;;;;;3.83;3.40;;;;;;;22.44;61.63;101108.56;5018766;28;20479;-90
2021/07/04 08:51:11;;;;;;;4.03;3.38;;;;;;;22.46;61.34;101116.41;5018644;28;20085;-90
2021/07/04 08:53:38;;;;;;;4.03;3.40;;;;;;;22.40;61.85;101117.41;5002626;28;20025;-91
2021/07/04 08:56:04;;;;;;;4.50;3.70;;;;;;;22.44;60.47;101111.19;5002410;28;20037;-91
2021/07/04 08:58:29;;;;;;;4.88;3.22;;;;;;;22.40;61.19;101112.16;4986354;28;20021;-90
2021/07/04 09:01:08;;;;;;;3.53;3.13;;;;;;;22.38;60.94;101116.56;5018630;28;20395;-89
2021/07/04 09:03:34;;;;;;;3.70;3.40;;;;;;;22.44;59.56;101128.69;5018552;28;20018;-90
2021/07/04 09:06:00;;;;;;;4.50;3.35;;;;;;;22.39;60.40;101132.28;5002056;28;20040;-90
2021/07/04 09:08:25;;;;;;;3.50;3.20;;;;;;;22.38;59.77;101121.81;5002026;28;20052;-90
2021/07/04 09:11:15;;;;;;;5.57;3.45;;;;;;;22.40;60.73;101114.78;4985803;28;20071;-90
2021/07/04 09:13:42;;;;;;;4.03;3.08;;;;;;;22.38;61.16;101112.22;5018274;28;20032;-89
2021/07/04 09:16:10;;;;;;;3.50;3.20;;;;;;;22.42;60.64;101112.97;5018118;28;20119;-90
2021/07/04 09:18:37;;;;;;;3.65;3.30;;;;;;;22.40;61.19;101117.41;5035794;28;20379;-90
2021/07/04 09:21:22;;;;;;;3.92;3.42;;;;;;;22.36;60.53;101110.50;5018060;28;20025;-91
2021/07/04 09:23:49;;;;;;;3.60;3.20;;;;;;;22.42;60.76;101120.00;5035851;28;20517;-89
2021/07/04 09:26:39;;;;;;;4.25;3.20;;;;;;;22.45;60.18;101123.41;5017937;28;20066;-89
2021/07/04 09:29:06;;;;;;;3.97;3.40;;;;;;;22.46;59.41;101109.38;5017681;28;20036;-88
2021/07/04 09:31:31;;;;;;;3.65;2.83;;;;;;;22.42;61.62;101105.13;5018046;28;20514;-91
2021/07/04 09:34:08;;;;;;;4.78;3.50;;;;;;;22.43;59.13;101104.22;4985457;28;20126;-88
2021/07/04 09:36:35;;;;;;;8.15;3.35;;;;;;;22.47;59.38;101105.00;5001607;28;20561;-90
2021/07/04 09:39:01;;;;;;;16.33;5.72;;;;;;;22.43;60.38;101105.97;5017576;28;20102;-90
2021/07/04 09:41:27;;;;;;;13.95;6.00;;;;;;;22.42;60.34;101104.25;5001257;28;20116;-90
2021/07/04 09:43:52;;;;;;;9.68;4.70;;;;;;;22.47;59.47;101097.13;5017474;28;20040;-88
2021/07/04 09:46:18;;;;;;;10.07;4.63;;;;;;;22.41;60.38;101106.03;4985875;28;20021;-84
2021/07/04 09:48:46;;;;;;;9.18;4.50;;;;;;;22.41;60.54;101092.91;5017086;28;20129;-82
2021/07/04 09:51:15;;;;;;;6.80;4.55;;;;;;;22.37;59.92;101100.00;5034031;28;20056;-86
2021/07/04 09:53:56;;;;;;;8.35;4.55;;;;;;;22.36;59.71;101095.66;5017172;28;20112;-85
2021/07/04 09:56:32;;;;;;;6.90;3.97;;;;;;;22.32;59.08;101095.75;5002813;28;20475;-84
2021/07/04 09:58:59;;;;;;;7.95;3.85;;;;;;;22.43;58.77;101087.59;5001007;28;20029;-78
2021/07/04 10:01:31;;;;;;;6.35;3.97;;;;;;;22.45;59.36;101081.44;5017228;28;20022;-79
2021/07/04 10:03:57;;;;;;;6.05;4.43;;;;;;;22.30;58.95;101076.59;5017110;28;20057;-82
2021/07/04 10:06:22;;;;;;;6.60;4.25;;;;;;;22.27;58.46;101081.91;5035164;28;20079;-82
2021/07/04 10:08:49;;;;;;;5.97;3.95;;;;;;;22.33;58.61;101073.91;4981478;28;20192;-84
2021/07/04 10:11:15;;;;;;;6.68;4.07;;;;;;;22.36;58.67;101072.06;5013896;28;20460;-83
2021/07/04 10:13:43;;;;;;;4.28;3.38;;;;;;;22.45;57.74;101072.69;5015359;28;20109;-79
2021/07/04 10:16:14;;;;;;;4.60;3.65;;;;;;;22.47;57.80;101076.16;5014026;28;20033;-81
2021/07/04 10:18:42;;;;;;;6.10;3.78;;;;;;;22.46;57.10;101075.28;5013542;28;20460;-79
2021/07/04 10:21:08;;;;;;;4.88;3.78;;;;;;;22.48;58.01;101068.25;5013738;28;20034;-81
2021/07/04 10:23:35;;;;;;;4.07;3.60;;;;;;;22.42;58.54;101075.41;5013494;28;20032;-80
2021/07/04 10:26:01;;;;;;;6.30;3.03;;;;;;;22.42;59.16;101075.41;5014016;28;20332;-81
2021/07/04 10:28:32;;;;;;;3.85;3.45;;;;;;;22.44;59.04;101068.38;4997262;28;20037;-80
2021/07/04 10:31:00;;;;;;;3.78;3.30;;;;;;;22.47;58.88;101070.91;5013578;28;20034;-80
2021/07/04 10:33:32;;;;;;;6.22;3.45;;;;;;;22.50;57.77;101058.59;4997234;28;20537;-81
2021/07/04 10:35:58;;;;;;;4.40;3.40;;;;;;;22.48;58.87;101064.78;4997706;28;20034;-80
2021/07/04 10:38:23;;;;;;;4.75;3.30;;;;;;;22.50;58.64;101055.97;5013141;28;20495;-80
2021/07/04 10:40:49;;;;;;;4.97;3.30;;;;;;;22.44;58.25;101050.88;5013135;28;20068;-80
2021/07/04 10:43:53;;;;;;;4.07;3.10;;;;;;;22.47;58.25;101055.16;5012981;28;20057;-81
2021/07/04 10:46:42;;;;;;;3.80;3.40;;;;;;;22.41;58.89;101050.97;5012265;28;20411;-78
2021/07/04 10:49:17;;;;;;;4.55;3.35;;;;;;;22.39;58.28;101055.38;5014235;28;20053;-80
2021/07/04 10:52:01;;;;;;;7.57;3.65;;;;;;;22.41;57.69;101050.06;5012924;28;20787;-81
2021/07/04 10:54:39;;;;;;;8.35;3.70;;;;;;;22.52;58.08;101042.81;5013105;28;20026;-82
2021/07/04 10:57:13;;;;;;;6.40;3.88;;;;;;;22.59;57.50;101042.59;5012871;28;20026;-80
2021/07/04 10:59:49;;;;;;;5.22;3.10;;;;;;;22.61;59.01;101041.69;5014161;28;20444;-80
2021/07/04 11:02:59;;;;;;;4.15;3.10;;;;;;;22.60;59.08;101040.81;5012659;28;20388;-80
2021/07/04 11:05:42;;;;;;;4.50;3.03;;;;;;;22.61;59.85;101034.69;5012726;28;20029;-80
2021/07/04 11:08:09;;;;;;;;;;;;;;;22.63;60.35;101038.13;5011388;28;20076;-80
2021/07/04 11:10:56;;;;;;;4.63;3.22;;;;;;;22.64;60.17;101039.84;5011740;28;19960;-81
2021/07/04 11:13:23;;;;;;;3.53;2.55;;;;;;;22.66;59.98;101039.81;5011505;28;20021;-81
2021/07/04 11:15:51;;;;;;;6.68;3.08;;;;;;;22.65;60.60;101035.47;5011287;28;20026;-82
2021/07/04 11:18:19;;;;;;;5.80;3.28;;;;;;;22.66;60.66;101039.81;5012482;28;20499;-79
2021/07/04 11:20:44;;;;;;;6.63;2.80;;;;;;;22.66;60.45;101029.31;5012650;28;20052;-80
2021/07/04 11:23:16;;;;;;;5.45;3.10;;;;;;;22.65;60.65;101031.09;5012503;28;20112;-79